Time;durP1;ratioP1;P1;durP2;ratioP2;P2;SDS_P1;SDS_P2;PMS_P1;PMS_P2;Temp;Humidity;BMP_temperature;BMP_pressure;BME280_temperature;BME280_humidity;BME280_pressure;Samples;Min_cycle;Max_cycle;Signal;HPM_P1;HPM_P2
2022/06/24 00:01:04;;;;;;;3.15;1.70;;;;;;;;;;4914567;29;20048;-96
2022/06/24 00:07:16;;;;;;;4.05;1.77;;;;;;;;;;4964370;29;20034;-96
2022/06/24 00:09:47;;;;;;;4.65;2.08;;;;;;;;;;4964939;29;20075;-96
2022/06/24 00:12:16;;;;;;;3.85;2.17;;;;;;;;;;4946607;29;20091;-96
2022/06/24 00:18:18;;;;;;;4.43;2.50;;;;;;;;;;4952494;29;20047;-79
2022/06/24 00:20:47;;;;;;;5.75;2.35;;;;;;;;;;4936446;29;20687;-79
2022/06/24 00:23:18;;;;;;;2.70;1.90;;;;;;;;;;4953315;29;20055;-79
2022/06/24 00:25:46;;;;;;;3.17;2.17;;;;;;;;;;4939035;28;20051;-79
2022/06/24 00:28:13;;;;;;;3.22;2.25;;;;;;;;;;4949314;28;20079;-78
2022/06/24 00:30:45;;;;;;;4.93;2.20;;;;;;;;;;4951541;29;20188;-78
2022/06/24 00:33:14;;;;;;;3.15;1.90;;;;;;;;;;4936387;29;20115;-80
2022/06/24 00:35:43;;;;;;;3.17;2.28;;;;;;;;;;4936908;29;20573;-80
2022/06/24 00:38:25;;;;;;;5.30;2.45;;;;;;;;;;4935129;28;20079;-79
2022/06/24 00:40:54;;;;;;;6.15;2.70;;;;;;;;;;4953769;28;20114;-80
2022/06/24 00:43:27;;;;;;;4.00;2.50;;;;;;;;;;4966964;28;20051;-80
2022/06/24 00:46:00;;;;;;;4.70;2.95;;;;;;;;;;4941380;29;20130;-79
2022/06/24 00:48:29;;;;;;;3.13;2.83;;;;;;;;;;4929882;28;20146;-79
2022/06/24 00:50:56;;;;;;;5.13;3.03;;;;;;;;;;4951410;28;20161;-79
2022/06/24 00:53:24;;;;;;;4.95;2.55;;;;;;;;;;4951012;28;20057;-77
2022/06/24 00:55:52;;;;;;;4.30;2.70;;;;;;;;;;4950950;28;20158;-77
2022/06/24 00:58:19;;;;;;;4.80;2.65;;;;;;;;;;4935259;28;20783;-79
2022/06/24 01:00:48;;;;;;;4.30;2.70;;;;;;;;;;4951785;28;20437;-78
2022/06/24 01:03:15;;;;;;;4.70;2.80;;;;;;;;;;4946938;28;20051;-79
2022/06/24 01:05:43;;;;;;;6.85;3.08;;;;;;;;;;4929199;29;20106;-78
2022/06/24 01:08:12;;;;;;;3.92;2.58;;;;;;;;;;4923940;28;20126;-78
2022/06/24 01:10:40;;;;;;;5.28;2.63;;;;;;;;;;4936772;29;20087;-78
2022/06/24 01:13:08;;;;;;;6.25;3.40;;;;;;;;;;4926664;29;20752;-79
2022/06/24 01:15:36;;;;;;;5.60;3.35;;;;;;;;;;4944402;28;20155;-79
2022/06/24 01:18:04;;;;;;;3.60;3.00;;;;;;;;;;4947026;28;20536;-79
2022/06/24 01:20:31;;;;;;;5.53;2.92;;;;;;;;;;4951081;29;20134;-79
2022/06/24 01:22:58;;;;;;;4.38;3.30;;;;;;;;;;4952056;28;20453;-79
2022/06/24 01:25:26;;;;;;;6.22;3.33;;;;;;;;;;4951549;29;20075;-78
2022/06/24 01:27:53;;;;;;;6.93;3.67;;;;;;;;;;4936118;29;20043;-78
2022/06/24 01:30:20;;;;;;;5.65;4.00;;;;;;;;;;4952800;29;20055;-79
2022/06/24 01:32:48;;;;;;;6.47;3.55;;;;;;;;;;4936129;29;20106;-79
2022/06/24 01:35:15;;;;;;;7.32;4.18;;;;;;;;;;4936189;29;20114;-79
2022/06/24 01:37:42;;;;;;;7.03;3.70;;;;;;;;;;4951416;28;20094;-79
2022/06/24 01:40:10;;;;;;;5.13;3.78;;;;;;;;;;4950547;28;20106;-78
2022/06/24 01:42:38;;;;;;;7.45;3.83;;;;;;;;;;4936263;29;20075;-79
2022/06/24 01:45:05;;;;;;;6.47;3.63;;;;;;;;;;4952103;29;20118;-79
2022/06/24 01:47:33;;;;;;;7.30;3.72;;;;;;;;;;4936199;29;20091;-79
2022/06/24 01:50:00;;;;;;;6.10;4.85;;;;;;;;;;4952016;29;20079;-78
2022/06/24 01:52:27;;;;;;;6.70;4.70;;;;;;;;;;4957434;28;20137;-78
2022/06/24 01:54:55;;;;;;;7.65;4.30;;;;;;;;;;4955141;28;20763;-77
2022/06/24 01:57:23;;;;;;;9.20;4.32;;;;;;;;;;4949460;29;20079;-78
2022/06/24 01:59:51;;;;;;;6.47;3.78;;;;;;;;;;4934670;29;20127;-78
2022/06/24 02:02:18;;;;;;;10.77;4.38;;;;;;;;;;4936054;28;20051;-78
2022/06/24 02:04:47;;;;;;;9.50;4.93;;;;;;;;;;4932072;29;20047;-79
2022/06/24 02:07:15;;;;;;;6.68;4.43;;;;;;;;;;4949512;28;20079;-78
2022/06/24 02:15:13;;;;;;;10.98;4.45;;;;;;;;;;4952300;29;19926;-79
2022/06/24 02:17:41;;;;;;;7.13;4.70;;;;;;;;;;4954130;28;20138;-78
2022/06/24 02:20:08;;;;;;;7.60;4.35;;;;;;;;;;4944436;28;20078;-80
2022/06/24 02:22:35;;;;;;;6.03;4.65;;;;;;;;;;4951542;29;20047;-80
2022/06/24 02:25:03;;;;;;;6.88;4.75;;;;;;;;;;4951205;29;20075;-79
2022/06/24 02:27:30;;;;;;;6.75;4.30;;;;;;;;;;4935446;29;20131;-80
2022/06/24 02:29:58;;;;;;;10.25;4.95;;;;;;;;;;4951976;29;20085;-81
2022/06/24 02:32:25;;;;;;;7.45;4.55;;;;;;;;;;4951355;28;20075;-80
2022/06/24 02:34:52;;;;;;;9.90;5.15;;;;;;;;;;4952625;28;20073;-80
2022/06/24 02:37:20;;;;;;;7.88;5.10;;;;;;;;;;4944439;29;20492;-80
2022/06/24 02:39:47;;;;;;;10.65;6.00;;;;;;;;;;4970839;28;20093;-80
2022/06/24 02:42:14;;;;;;;9.18;5.53;;;;;;;;;;4937113;29;20051;-80
2022/06/24 02:44:42;;;;;;;7.82;5.72;;;;;;;;;;4952380;28;20055;-80
2022/06/24 02:47:10;;;;;;;8.82;5.57;;;;;;;;;;4955103;28;20134;-80
2022/06/24 02:49:38;;;;;;;8.98;5.97;;;;;;;;;;4957670;28;20086;-80
2022/06/24 02:52:08;;;;;;;11.25;5.60;;;;;;;;;;4954117;28;20079;-80
2022/06/24 02:54:35;;;;;;;12.30;5.82;;;;;;;;;;4938748;29;20078;-79
2022/06/24 02:57:03;;;;;;;9.43;6.05;;;;;;;;;;4952114;28;20484;-79
2022/06/24 02:59:30;;;;;;;9.25;6.05;;;;;;;;;;4954785;29;20075;-80
2022/06/24 03:01:57;;;;;;;9.90;6.22;;;;;;;;;;4955388;28;20055;-81
2022/06/24 03:04:25;;;;;;;9.43;6.05;;;;;;;;;;4954500;29;20134;-80
2022/06/24 03:06:52;;;;;;;7.03;5.68;;;;;;;;;;4955139;28;20849;-81
2022/06/24 03:09:20;;;;;;;10.45;6.57;;;;;;;;;;4955325;29;20505;-80
2022/06/24 03:11:47;;;;;;;12.30;6.63;;;;;;;;;;4954595;28;20191;-80
2022/06/24 03:14:14;;;;;;;12.50;6.32;;;;;;;;;;4937622;29;20051;-80
2022/06/24 03:16:41;;;;;;;11.00;6.65;;;;;;;;;;4937235;29;20138;-80
2022/06/24 03:19:09;;;;;;;8.45;6.13;;;;;;;;;;4946767;28;20137;-80
2022/06/24 03:21:36;;;;;;;10.35;6.80;;;;;;;;;;4946013;29;20106;-80
2022/06/24 03:24:04;;;;;;;7.93;5.90;;;;;;;;;;4937089;29;20127;-80
2022/06/24 03:26:31;;;;;;;13.13;6.65;;;;;;;;;;4946149;28;20079;-80
2022/06/24 03:28:58;;;;;;;11.85;6.20;;;;;;;;;;4948426;28;20075;-80
2022/06/24 03:31:26;;;;;;;11.88;6.53;;;;;;;;;;4957263;28;20784;-80
2022/06/24 03:33:55;;;;;;;10.30;6.32;;;;;;;;;;4955095;29;20093;-80
2022/06/24 03:36:23;;;;;;;10.88;6.55;;;;;;;;;;4938074;29;20055;-80
2022/06/24 03:38:50;;;;;;;15.20;6.72;;;;;;;;;;4970615;28;20078;-80
2022/06/24 03:41:17;;;;;;;11.18;5.72;;;;;;;;;;4954498;29;20161;-80
2022/06/24 03:43:45;;;;;;;18.42;6.30;;;;;;;;;;4953287;29;20051;-80
2022/06/24 03:46:12;;;;;;;8.45;6.15;;;;;;;;;;4952561;29;20146;-80
2022/06/24 03:48:40;;;;;;;13.88;6.57;;;;;;;;;;4930083;29;20064;-80
2022/06/24 03:51:07;;;;;;;10.70;6.25;;;;;;;;;;4956613;28;20134;-80
2022/06/24 03:53:34;;;;;;;11.05;6.20;;;;;;;;;;4967713;28;20449;-80
2022/06/24 03:56:02;;;;;;;12.60;6.53;;;;;;;;;;4937264;29;20047;-81
2022/06/24 03:58:29;;;;;;;9.68;6.30;;;;;;;;;;4936869;29;20742;-80
2022/06/24 04:01:02;;;;;;;14.23;6.82;;;;;;;;;;4953862;29;20464;-80
2022/06/24 04:03:30;;;;;;;10.15;6.53;;;;;;;;;;4956853;28;20057;-80
2022/06/24 04:05:58;;;;;;;7.85;6.00;;;;;;;;;;4955035;28;20140;-80
2022/06/24 04:08:25;;;;;;;10.50;6.70;;;;;;;;;;4945632;28;20075;-80
2022/06/24 04:10:52;;;;;;;10.23;5.70;;;;;;;;;;4952480;28;20665;-80
2022/06/24 04:13:20;;;;;;;12.15;6.85;;;;;;;;;;4937332;29;20838;-80
2022/06/24 04:15:51;;;;;;;13.80;6.38;;;;;;;;;;4936845;29;20479;-80
2022/06/24 04:18:18;;;;;;;14.18;5.60;;;;;;;;;;4954444;29;20087;-80
2022/06/24 04:20:45;;;;;;;7.88;5.93;;;;;;;;;;4939385;28;20095;-80
2022/06/24 04:23:12;;;;;;;12.75;6.15;;;;;;;;;;4954074;28;20086;-80
2022/06/24 04:25:40;;;;;;;7.65;5.20;;;;;;;;;;4953518;28;20051;-80
2022/06/24 04:28:07;;;;;;;13.45;5.78;;;;;;;;;;4936987;29;20090;-80
2022/06/24 04:30:35;;;;;;;8.98;5.32;;;;;;;;;;4950689;28;20055;-80
2022/06/24 04:33:02;;;;;;;9.65;5.20;;;;;;;;;;4953817;29;20102;-80
2022/06/24 04:35:29;;;;;;;8.88;5.75;;;;;;;;;;4953307;29;20094;-80
2022/06/24 04:37:57;;;;;;;8.73;5.00;;;;;;;;;;4968310;28;20662;-80
2022/06/24 04:40:24;;;;;;;10.85;6.03;;;;;;;;;;4951827;29;20082;-80
2022/06/24 04:42:52;;;;;;;13.40;5.28;;;;;;;;;;4946975;28;20086;-80
2022/06/24 04:45:19;;;;;;;8.80;5.35;;;;;;;;;;4955684;28;20134;-80
2022/06/24 04:47:46;;;;;;;8.02;5.80;;;;;;;;;;4963042;28;20556;-80
2022/06/24 04:50:13;;;;;;;8.35;5.78;;;;;;;;;;4951878;28;20055;-80
2022/06/24 04:52:41;;;;;;;9.52;5.68;;;;;;;;;;4951013;28;20496;-80
2022/06/24 04:55:08;;;;;;;8.63;6.82;;;;;;;;;;4952592;28;20612;-80
2022/06/24 04:57:36;;;;;;;8.82;6.40;;;;;;;;;;4951961;28;20055;-80
2022/06/24 05:00:04;;;;;;;10.55;5.72;;;;;;;;;;4932549;29;20071;-80
2022/06/24 05:02:31;;;;;;;10.90;5.57;;;;;;;;;;4951189;28;20094;-81
2022/06/24 05:05:00;;;;;;;10.60;5.93;;;;;;;;;;4952870;29;20054;-80
2022/06/24 05:07:27;;;;;;;9.43;6.20;;;;;;;;;;4951940;28;20480;-81
2022/06/24 05:09:54;;;;;;;7.93;5.22;;;;;;;;;;4950532;28;20114;-80
2022/06/24 05:12:22;;;;;;;8.82;5.45;;;;;;;;;;4952508;29;20058;-81
2022/06/24 05:14:49;;;;;;;10.10;5.50;;;;;;;;;;4935047;29;20051;-78
2022/06/24 05:17:22;;;;;;;9.80;5.35;;;;;;;;;;4952485;29;20063;-79
2022/06/24 05:19:49;;;;;;;10.65;5.30;;;;;;;;;;4951085;28;20396;-77
2022/06/24 05:22:16;;;;;;;9.85;5.25;;;;;;;;;;4949638;28;20542;-77
2022/06/24 05:24:44;;;;;;;12.13;5.43;;;;;;;;;;4951672;29;20110;-77
2022/06/24 05:27:11;;;;;;;7.22;4.82;;;;;;;;;;4933862;29;20082;-77
2022/06/24 05:29:38;;;;;;;8.55;5.22;;;;;;;;;;4934111;29;20481;-80
2022/06/24 05:32:06;;;;;;;11.98;6.28;;;;;;;;;;4951864;28;20083;-80
2022/06/24 05:34:33;;;;;;;9.18;4.80;;;;;;;;;;4934716;29;20485;-78
2022/06/24 05:37:01;;;;;;;6.57;4.50;;;;;;;;;;4935738;29;20079;-80
2022/06/24 05:39:28;;;;;;;10.30;5.32;;;;;;;;;;4951346;29;20047;-78
2022/06/24 05:41:55;;;;;;;12.07;5.35;;;;;;;;;;4952162;28;20047;-79
2022/06/24 05:44:23;;;;;;;11.00;4.85;;;;;;;;;;4950328;28;20058;-81
2022/06/24 05:46:51;;;;;;;9.25;5.15;;;;;;;;;;4934882;29;20051;-79
2022/06/24 05:49:19;;;;;;;7.03;4.75;;;;;;;;;;4952727;29;20066;-78
2022/06/24 05:51:46;;;;;;;8.52;4.65;;;;;;;;;;4952339;29;20075;-78
2022/06/24 05:56:59;;;;;;;8.55;4.20;;;;;;;;;;4952448;29;20526;-78
2022/06/24 05:59:27;;;;;;;9.35;4.95;;;;;;;;;;4951104;29;20135;-78
2022/06/24 06:01:55;;;;;;;12.38;4.72;;;;;;;;;;4951205;28;20114;-78
2022/06/24 06:04:22;;;;;;;11.70;4.90;;;;;;;;;;4952841;29;20138;-79
2022/06/24 06:06:51;;;;;;;9.45;4.50;;;;;;;;;;4944501;29;20056;-78
2022/06/24 06:09:18;;;;;;;9.45;5.53;;;;;;;;;;4931803;29;20127;-83
2022/06/24 06:11:46;;;;;;;10.25;4.40;;;;;;;;;;4932437;29;20126;-84
2022/06/24 06:14:13;;;;;;;9.05;4.45;;;;;;;;;;4932236;29;20137;-78
2022/06/24 06:16:40;;;;;;;10.10;5.07;;;;;;;;;;4943535;29;20090;-78
2022/06/24 06:19:08;;;;;;;7.85;4.78;;;;;;;;;;4937931;29;20055;-79
2022/06/24 06:21:35;;;;;;;11.90;4.47;;;;;;;;;;4937262;29;20130;-79
2022/06/24 06:24:03;;;;;;;9.30;4.25;;;;;;;;;;4934469;29;20087;-79
2022/06/24 06:26:31;;;;;;;12.38;4.55;;;;;;;;;;4939252;29;20078;-79
2022/06/24 06:28:58;;;;;;;15.80;4.43;;;;;;;;;;4955176;28;20110;-79
2022/06/24 06:31:25;;;;;;;11.82;5.45;;;;;;;;;;4954709;29;20476;-79
2022/06/24 06:33:53;;;;;;;13.10;4.95;;;;;;;;;;4954868;29;20727;-79
2022/06/24 06:36:20;;;;;;;6.50;4.45;;;;;;;;;;4951424;29;20051;-79
2022/06/24 06:38:47;;;;;;;12.18;3.80;;;;;;;;;;4936614;29;20055;-79
2022/06/24 06:41:17;;;;;;;13.77;4.38;;;;;;;;;;4943123;29;20048;-79
2022/06/24 06:43:44;;;;;;;6.90;3.70;;;;;;;;;;4955550;29;20054;-79
2022/06/24 06:46:12;;;;;;;8.95;3.50;;;;;;;;;;4947089;29;20051;-79
2022/06/24 06:48:39;;;;;;;12.00;4.20;;;;;;;;;;4953741;29;20043;-82
2022/06/24 06:51:07;;;;;;;8.13;4.13;;;;;;;;;;4938464;29;20089;-82
2022/06/24 06:53:35;;;;;;;7.82;4.28;;;;;;;;;;4938714;29;20452;-80
2022/06/24 06:56:02;;;;;;;7.93;3.80;;;;;;;;;;4955234;29;20126;-81
2022/06/24 06:58:29;;;;;;;8.57;3.90;;;;;;;;;;4939497;29;20059;-80
2022/06/24 07:00:59;;;;;;;10.73;3.97;;;;;;;;;;4952488;29;20059;-80
2022/06/24 07:03:27;;;;;;;4.43;3.97;;;;;;;;;;4953313;29;20492;-79
2022/06/24 07:05:54;;;;;;;14.43;4.15;;;;;;;;;;4954459;29;20082;-80
2022/06/24 07:08:23;;;;;;;9.07;3.53;;;;;;;;;;4938339;29;20484;-80
2022/06/24 07:10:50;;;;;;;10.80;4.13;;;;;;;;;;4955033;29;20540;-80
2022/06/24 07:13:19;;;;;;;9.55;3.70;;;;;;;;;;4954586;29;20051;-79
2022/06/24 07:15:47;;;;;;;9.15;3.55;;;;;;;;;;4950843;29;20075;-80
2022/06/24 07:18:14;;;;;;;8.57;4.10;;;;;;;;;;4955148;29;20086;-79
2022/06/24 07:20:46;;;;;;;9.63;3.45;;;;;;;;;;4953748;29;20086;-80
2022/06/24 07:23:13;;;;;;;6.05;3.47;;;;;;;;;;4955190;29;20812;-80
2022/06/24 07:25:41;;;;;;;12.80;3.78;;;;;;;;;;4954838;29;20051;-80
2022/06/24 07:28:08;;;;;;;10.65;3.97;;;;;;;;;;4955236;29;20051;-80
2022/06/24 07:30:36;;;;;;;10.07;3.05;;;;;;;;;;4954690;29;20501;-80
2022/06/24 07:33:03;;;;;;;6.30;3.50;;;;;;;;;;4954410;29;20074;-79
2022/06/24 07:35:30;;;;;;;7.82;3.20;;;;;;;;;;4952198;29;20110;-80
2022/06/24 07:38:18;;;;;;;6.85;3.10;;;;;;;;;;4951769;28;20056;-80
2022/06/24 07:40:45;;;;;;;5.57;3.30;;;;;;;;;;4952280;28;20090;-83
2022/06/24 07:43:12;;;;;;;7.82;3.00;;;;;;;;;;4936497;29;20082;-83
2022/06/24 07:45:40;;;;;;;4.80;2.97;;;;;;;;;;4937747;29;20059;-81
2022/06/24 07:48:07;;;;;;;8.88;3.60;;;;;;;;;;4933530;29;20086;-81
2022/06/24 07:50:34;;;;;;;4.53;3.15;;;;;;;;;;4934078;29;20075;-79
2022/06/24 07:53:02;;;;;;;4.50;2.90;;;;;;;;;;4950155;28;20059;-80
2022/06/24 07:58:15;;;;;;;5.35;3.13;;;;;;;;;;4953704;29;20086;-79
2022/06/24 08:00:42;;;;;;;11.05;3.22;;;;;;;;;;4953405;28;20122;-79
2022/06/24 08:03:10;;;;;;;6.50;3.05;;;;;;;;;;4953540;29;20089;-81
2022/06/24 08:05:37;;;;;;;9.38;2.72;;;;;;;;;;4952157;28;20051;-81
2022/06/24 08:08:05;;;;;;;8.38;2.88;;;;;;;;;;4949296;28;20117;-79
2022/06/24 08:10:32;;;;;;;9.80;3.10;;;;;;;;;;4935171;29;20082;-78
2022/06/24 08:12:59;;;;;;;4.50;3.25;;;;;;;;;;4946874;28;20079;-79
2022/06/24 08:15:27;;;;;;;10.90;3.17;;;;;;;;;;4936361;29;20109;-79
2022/06/24 08:17:54;;;;;;;4.50;3.20;;;;;;;;;;4937041;28;20097;-80
2022/06/24 08:20:21;;;;;;;4.93;3.25;;;;;;;;;;4952687;28;20097;-79
2022/06/24 08:22:49;;;;;;;10.60;3.50;;;;;;;;;;4937431;29;20067;-79
2022/06/24 08:25:16;;;;;;;8.80;3.40;;;;;;;;;;4936487;29;20093;-80
2022/06/24 08:27:50;;;;;;;14.63;4.07;;;;;;;;;;4937388;29;20054;-83
2022/06/24 08:30:17;;;;;;;8.70;3.30;;;;;;;;;;4935610;29;20447;-82
2022/06/24 08:32:45;;;;;;;4.35;2.95;;;;;;;;;;4939775;28;20061;-83
2022/06/24 08:35:12;;;;;;;3.28;2.15;;;;;;;;;;4952204;28;20436;-84
2022/06/24 08:37:57;;;;;;;6.30;2.88;;;;;;;;;;4933992;29;20059;-83
2022/06/24 08:40:25;;;;;;;9.70;2.63;;;;;;;;;;4952011;28;20051;-83
2022/06/24 08:42:54;;;;;;;5.25;2.60;;;;;;;;;;4952063;29;20051;-84
2022/06/24 08:45:31;;;;;;;6.95;3.35;;;;;;;;;;4951416;29;20051;-83
2022/06/24 08:47:58;;;;;;;6.80;2.85;;;;;;;;;;4952754;29;20095;-83
2022/06/24 08:50:26;;;;;;;5.35;2.72;;;;;;;;;;4952681;28;20055;-82
2022/06/24 08:52:55;;;;;;;6.68;3.10;;;;;;;;;;4947345;29;20099;-82
2022/06/24 08:55:24;;;;;;;8.18;3.35;;;;;;;;;;4951551;28;20043;-81
2022/06/24 08:57:52;;;;;;;3.75;2.55;;;;;;;;;;4947961;29;20057;-81
2022/06/24 09:00:20;;;;;;;6.50;2.63;;;;;;;;;;4952965;28;20046;-83
2022/06/24 09:02:48;;;;;;;6.78;2.95;;;;;;;;;;4936557;29;20047;-85
2022/06/24 09:05:16;;;;;;;8.77;2.95;;;;;;;;;;4953765;29;20496;-87
2022/06/24 09:07:44;;;;;;;13.60;2.92;;;;;;;;;;4936964;29;20138;-88
2022/06/24 09:10:12;;;;;;;15.88;3.42;;;;;;;;;;4937568;29;20102;-93
2022/06/24 09:12:44;;;;;;;11.07;2.55;;;;;;;;;;4934696;29;20535;-90
2022/06/24 09:15:12;;;;;;;10.07;3.58;;;;;;;;;;4937379;28;20047;-89
2022/06/24 09:17:40;;;;;;;19.33;3.13;;;;;;;;;;4951385;29;20519;-83
2022/06/24 09:23:16;;;;;;;5.60;3.15;;;;;;;;;;5082154;23;20083;-85
2022/06/24 09:25:44;;;;;;;14.70;2.95;;;;;;;;;;4917890;29;20166;-87
2022/06/24 09:28:14;;;;;;;43.50;7.53;;;;;;;;;;4948459;29;20051;-87
2022/06/24 09:30:42;;;;;;;5.07;2.75;;;;;;;;;;4953548;29;20054;-87
2022/06/24 09:33:15;;;;;;;7.88;3.15;;;;;;;;;;4932231;29;20606;-88
2022/06/24 09:35:59;;;;;;;10.85;2.50;;;;;;;;;;4933368;29;20054;-86
2022/06/24 09:38:27;;;;;;;4.22;2.65;;;;;;;;;;4930679;29;20126;-85
2022/06/24 09:41:04;;;;;;;8.02;2.47;;;;;;;;;;4952672;29;20051;-86
2022/06/24 09:43:32;;;;;;;10.15;2.35;;;;;;;;;;4936027;29;20054;-85
2022/06/24 09:46:00;;;;;;;8.30;2.78;;;;;;;;;;4935472;29;20051;-84
2022/06/24 09:48:38;;;;;;;6.32;2.33;;;;;;;;;;4951663;29;20074;-83
2022/06/24 09:51:06;;;;;;;5.82;2.65;;;;;;;;;;4952995;29;20051;-81
2022/06/24 09:53:36;;;;;;;17.15;3.22;;;;;;;;;;4935669;29;20105;-81
2022/06/24 09:56:07;;;;;;;6.88;2.17;;;;;;;;;;4935534;29;20066;-81
2022/06/24 09:58:38;;;;;;;3.65;2.53;;;;;;;;;;4935124;29;20146;-80
2022/06/24 10:01:06;;;;;;;3.35;2.00;;;;;;;;;;4952293;28;20106;-80
2022/06/24 10:03:35;;;;;;;5.05;2.05;;;;;;;;;;4963204;28;20447;-79
2022/06/24 10:06:05;;;;;;;7.65;2.80;;;;;;;;;;4943758;28;20079;-79
2022/06/24 10:08:36;;;;;;;5.72;2.40;;;;;;;;;;4938562;29;20126;-79
2022/06/24 10:11:25;;;;;;;5.95;2.67;;;;;;;;;;4944095;29;20054;-83
2022/06/24 10:13:52;;;;;;;9.68;2.30;;;;;;;;;;4939184;29;20087;-83
2022/06/24 10:16:21;;;;;;;11.82;2.83;;;;;;;;;;4956707;29;20492;-82
2022/06/24 10:18:49;;;;;;;13.23;2.00;;;;;;;;;;4956088;29;20078;-81
2022/06/24 10:21:18;;;;;;;7.70;2.05;;;;;;;;;;4954801;29;20047;-82
2022/06/24 10:23:48;;;;;;;12.15;3.00;;;;;;;;;;4939371;29;20142;-82
2022/06/24 10:26:25;;;;;;;5.28;2.45;;;;;;;;;;4955316;29;20075;-80
2022/06/24 10:28:58;;;;;;;6.68;1.80;;;;;;;;;;4953773;29;20080;-81
2022/06/24 10:31:56;;;;;;;7.55;2.10;;;;;;;;;;4955035;29;20075;-82
2022/06/24 10:34:26;;;;;;;1.92;1.63;;;;;;;;;;4938122;29;20469;-80
2022/06/24 10:36:57;;;;;;;6.20;2.20;;;;;;;;;;4919895;29;20055;-80
2022/06/24 10:39:25;;;;;;;6.20;1.98;;;;;;;;;;4932424;29;20098;-84
2022/06/24 10:42:06;;;;;;;7.10;1.85;;;;;;;;;;4932821;29;20121;-80
2022/06/24 10:44:35;;;;;;;4.47;1.70;;;;;;;;;;4955114;29;20051;-80
2022/06/24 10:47:05;;;;;;;8.20;2.50;;;;;;;;;;4956240;29;20067;-81
2022/06/24 10:49:51;;;;;;;20.52;3.40;;;;;;;;;;4938771;29;20606;-82
2022/06/24 10:52:32;;;;;;;4.35;2.53;;;;;;;;;;4966818;28;20070;-81
2022/06/24 10:55:16;;;;;;;3.53;1.90;;;;;;;;;;4958419;28;20062;-81
2022/06/24 10:57:54;;;;;;;5.35;1.95;;;;;;;;;;4955618;29;20152;-82
2022/06/24 11:00:23;;;;;;;11.80;2.00;;;;;;;;;;4929971;29;20064;-83
2022/06/24 11:02:57;;;;;;;8.60;1.90;;;;;;;;;;4946197;29;20122;-82
2022/06/24 11:05:30;;;;;;;3.92;2.03;;;;;;;;;;4938329;29;20773;-81
2022/06/24 11:07:58;;;;;;;4.00;2.00;;;;;;;;;;4923463;29;20044;-83
2022/06/24 11:10:27;;;;;;;20.15;2.42;;;;;;;;;;4919288;29;20327;-83
2022/06/24 11:12:59;;;;;;;20.65;3.20;;;;;;;;;;4936451;29;20181;-83
2022/06/24 11:15:39;;;;;;;14.27;2.38;;;;;;;;;;4952835;29;20449;-82
2022/06/24 11:18:13;;;;;;;10.88;2.10;;;;;;;;;;4949498;29;20134;-86
2022/06/24 11:20:46;;;;;;;5.15;2.00;;;;;;;;;;4955310;29;20078;-83
2022/06/24 11:23:15;;;;;;;14.18;3.00;;;;;;;;;;4952935;29;20106;-84
2022/06/24 11:25:47;;;;;;;6.45;1.98;;;;;;;;;;4955393;28;20090;-87
2022/06/24 11:28:34;;;;;;;4.28;1.70;;;;;;;;;;4937838;29;20047;-83
2022/06/24 11:31:17;;;;;;;3.70;2.03;;;;;;;;;;4955129;29;20054;-83
2022/06/24 11:33:45;;;;;;;13.23;1.98;;;;;;;;;;4954900;29;20194;-83
2022/06/24 11:36:14;;;;;;;7.30;2.00;;;;;;;;;;4955604;29;20051;-83
2022/06/24 11:39:09;;;;;;;13.63;1.90;;;;;;;;;;4954668;29;20047;-84
2022/06/24 11:41:40;;;;;;;6.80;3.28;;;;;;;;;;4954079;28;20537;-83
2022/06/24 11:44:31;;;;;;;8.23;2.10;;;;;;;;;;4936132;29;20457;-83
2022/06/24 11:46:59;;;;;;;10.68;2.80;;;;;;;;;;4919185;29;20485;-83
2022/06/24 11:49:27;;;;;;;9.23;2.50;;;;;;;;;;4919023;29;20079;-85
2022/06/24 11:51:54;;;;;;;5.32;2.20;;;;;;;;;;4918949;29;20103;-84
2022/06/24 11:54:26;;;;;;;7.03;2.20;;;;;;;;;;4932884;29;20051;-84
2022/06/24 11:56:53;;;;;;;6.20;2.20;;;;;;;;;;4937546;29;20130;-82
2022/06/24 11:59:23;;;;;;;29.88;3.92;;;;;;;;;;4954490;29;20142;-82
2022/06/24 12:01:51;;;;;;;10.38;2.20;;;;;;;;;;4934017;29;20056;-84
2022/06/24 12:04:20;;;;;;;3.08;1.90;;;;;;;;;;4934905;29;20048;-84
2022/06/24 12:06:48;;;;;;;11.27;2.20;;;;;;;;;;4924292;29;20411;-85
2022/06/24 12:09:16;;;;;;;8.55;1.85;;;;;;;;;;4937590;29;20114;-84
2022/06/24 12:11:44;;;;;;;10.18;2.55;;;;;;;;;;4935071;29;20139;-85
2022/06/24 12:14:14;;;;;;;7.65;2.15;;;;;;;;;;4926246;29;20055;-82
2022/06/24 12:16:53;;;;;;;2.70;1.92;;;;;;;;;;4936364;29;20106;-84
2022/06/24 12:19:21;;;;;;;3.75;1.92;;;;;;;;;;4953244;28;20582;-84
2022/06/24 12:21:48;;;;;;;13.05;2.47;;;;;;;;;;4935514;29;20082;-83
2022/06/24 12:24:20;;;;;;;9.23;2.30;;;;;;;;;;4934991;29;20054;-84
2022/06/24 12:26:47;;;;;;;6.60;2.05;;;;;;;;;;4933923;29;20077;-84
2022/06/24 12:29:15;;;;;;;7.70;2.28;;;;;;;;;;4929438;29;20500;-84
2022/06/24 12:31:50;;;;;;;8.52;2.13;;;;;;;;;;4917370;29;20087;-83
2022/06/24 12:34:17;;;;;;;;;;;;;;;;;;4929241;29;20757;-89
2022/06/24 12:36:44;;;;;;;6.75;2.20;;;;;;;;;;4918076;29;19958;-83
2022/06/24 12:39:12;;;;;;;3.25;1.90;;;;;;;;;;4941960;29;20085;-86
2022/06/24 12:41:46;;;;;;;11.73;2.70;;;;;;;;;;4936516;29;20113;-85
2022/06/24 12:44:15;;;;;;;5.95;2.58;;;;;;;;;;4935689;29;20483;-86
2022/06/24 12:52:40;;;;;;;3.97;2.17;;;;;;;;;;4954031;29;20090;-86
2022/06/24 12:55:09;;;;;;;4.35;2.05;;;;;;;;;;4936713;29;20087;-86
2022/06/24 12:57:37;;;;;;;15.73;2.28;;;;;;;;;;4936649;29;20055;-86
2022/06/24 13:00:08;;;;;;;3.53;2.20;;;;;;;;;;4953446;29;20066;-87
2022/06/24 13:02:36;;;;;;;8.20;2.25;;;;;;;;;;4936558;29;20055;-85
2022/06/24 13:05:04;;;;;;;4.20;2.10;;;;;;;;;;4935955;29;20616;-83
2022/06/24 13:07:35;;;;;;;3.28;1.83;;;;;;;;;;4936723;29;20056;-84
2022/06/24 13:10:03;;;;;;;7.47;2.50;;;;;;;;;;4953027;29;20105;-85
2022/06/24 13:12:30;;;;;;;3.47;2.28;;;;;;;;;;4936035;29;20146;-85
2022/06/24 13:14:58;;;;;;;4.63;2.40;;;;;;;;;;4936067;29;20137;-85
2022/06/24 13:17:25;;;;;;;3.63;2.20;;;;;;;;;;4953010;29;20091;-85
2022/06/24 13:19:52;;;;;;;4.13;2.05;;;;;;;;;;4934951;29;20787;-85
2022/06/24 13:22:20;;;;;;;10.93;2.83;;;;;;;;;;4951814;29;20082;-85
2022/06/24 13:24:47;;;;;;;7.07;2.70;;;;;;;;;;4935609;29;20514;-86
2022/06/24 13:27:14;;;;;;;4.57;2.28;;;;;;;;;;4930735;29;20106;-86
2022/06/24 13:29:42;;;;;;;6.38;2.28;;;;;;;;;;4934575;29;20114;-86
2022/06/24 13:32:09;;;;;;;3.88;2.33;;;;;;;;;;4935584;29;20501;-86
2022/06/24 13:34:36;;;;;;;7.70;2.55;;;;;;;;;;4952794;28;20055;-86
2022/06/24 13:37:05;;;;;;;6.55;2.33;;;;;;;;;;4946901;28;20055;-86
2022/06/24 13:39:32;;;;;;;6.03;2.35;;;;;;;;;;4945211;29;20067;-87
2022/06/24 13:42:00;;;;;;;5.13;2.75;;;;;;;;;;4945680;29;20139;-87
2022/06/24 13:44:27;;;;;;;9.85;2.40;;;;;;;;;;4938806;29;20222;-87
2022/06/24 13:46:55;;;;;;;10.98;2.10;;;;;;;;;;4925933;29;20134;-85
2022/06/24 13:49:23;;;;;;;4.70;2.15;;;;;;;;;;4928539;29;20138;-87
2022/06/24 13:51:50;;;;;;;4.75;2.88;;;;;;;;;;4932384;29;20139;-87
2022/06/24 13:54:17;;;;;;;6.03;2.55;;;;;;;;;;4932623;29;20076;-87
2022/06/24 13:56:45;;;;;;;4.63;2.55;;;;;;;;;;4933661;29;20086;-87
2022/06/24 13:59:15;;;;;;;7.07;2.78;;;;;;;;;;4932317;29;20143;-86
2022/06/24 14:01:43;;;;;;;7.28;2.35;;;;;;;;;;4932456;29;20075;-86
2022/06/24 14:04:11;;;;;;;6.50;2.22;;;;;;;;;;4935342;29;20126;-86
2022/06/24 14:06:38;;;;;;;4.60;2.00;;;;;;;;;;4953222;29;20066;-86
2022/06/24 14:09:06;;;;;;;3.38;2.13;;;;;;;;;;4952803;29;20087;-86
2022/06/24 14:11:33;;;;;;;11.55;2.03;;;;;;;;;;4950994;29;20096;-87
2022/06/24 14:14:01;;;;;;;9.18;2.00;;;;;;;;;;4951184;29;20164;-87
2022/06/24 14:16:28;;;;;;;8.75;2.15;;;;;;;;;;4951602;29;20130;-88
2022/06/24 14:19:15;;;;;;;7.72;2.22;;;;;;;;;;4951260;28;20419;-87
2022/06/24 14:21:43;;;;;;;19.55;3.08;;;;;;;;;;4951538;28;20134;-87
2022/06/24 14:26:56;;;;;;;4.40;2.08;;;;;;;;;;4952936;29;20511;-87
2022/06/24 14:29:23;;;;;;;11.85;2.38;;;;;;;;;;4952708;29;20082;-86
2022/06/24 14:31:51;;;;;;;7.68;2.10;;;;;;;;;;4935636;29;20075;-86
2022/06/24 14:34:18;;;;;;;4.82;1.83;;;;;;;;;;4935310;29;20055;-86
2022/06/24 14:36:48;;;;;;;4.10;1.90;;;;;;;;;;4935827;29;20077;-85
2022/06/24 14:42:01;;;;;;;3.92;2.25;;;;;;;;;;4952446;29;20078;-86
2022/06/24 14:44:32;;;;;;;6.97;2.55;;;;;;;;;;4935379;29;20043;-86
2022/06/24 14:47:03;;;;;;;10.75;2.63;;;;;;;;;;4935480;28;20667;-87
2022/06/24 14:49:31;;;;;;;6.38;2.20;;;;;;;;;;4938998;29;20051;-87
2022/06/24 14:51:59;;;;;;;5.68;2.38;;;;;;;;;;4939196;29;20126;-87
2022/06/24 14:54:27;;;;;;;6.65;2.60;;;;;;;;;;4955532;29;20131;-86
2022/06/24 14:56:54;;;;;;;4.05;1.98;;;;;;;;;;4937848;29;20087;-86
2022/06/24 14:59:22;;;;;;;4.28;2.22;;;;;;;;;;4933067;29;20078;-87
2022/06/24 15:01:49;;;;;;;6.63;2.10;;;;;;;;;;4934732;29;20044;-87
2022/06/24 15:04:17;;;;;;;3.97;2.05;;;;;;;;;;4938086;29;20103;-87
2022/06/24 15:06:44;;;;;;;8.68;2.25;;;;;;;;;;4954207;29;20515;-87
2022/06/24 15:09:11;;;;;;;3.92;2.00;;;;;;;;;;4955883;29;20098;-87
2022/06/24 15:11:39;;;;;;;3.63;2.05;;;;;;;;;;4955744;29;20054;-88
2022/06/24 15:14:06;;;;;;;4.32;2.42;;;;;;;;;;4953779;29;20055;-86
2022/06/24 15:16:34;;;;;;;6.43;2.45;;;;;;;;;;4955594;29;20055;-87
2022/06/24 15:19:01;;;;;;;6.03;2.35;;;;;;;;;;4955196;29;20259;-85
2022/06/24 15:21:29;;;;;;;5.72;2.40;;;;;;;;;;4953624;29;20055;-84
2022/06/24 15:23:56;;;;;;;4.80;2.35;;;;;;;;;;4953643;29;20094;-85